createdAt,value
2022-10-30T00:01:59.660Z,14.10
2022-10-30T00:04:31.253Z,14.07
2022-10-30T00:07:06.208Z,14.06
2022-10-30T00:09:37.656Z,14.04
2022-10-30T00:12:09.323Z,14.03
2022-10-30T00:14:40.988Z,13.98
2022-10-30T00:17:12.901Z,13.97
2022-10-30T00:19:47.104Z,13.97
2022-10-30T00:22:21.287Z,13.97
2022-10-30T00:25:00.122Z,13.94
2022-10-30T00:27:34.797Z,13.92
2022-10-30T00:30:07.183Z,13.90
2022-10-30T00:32:41.427Z,13.90
2022-10-30T00:35:13.088Z,13.91
2022-10-30T00:37:45.050Z,13.93
2022-10-30T00:40:18.200Z,13.92
2022-10-30T00:42:49.859Z,13.92
2022-10-30T00:45:21.541Z,13.92
2022-10-30T00:48:00.146Z,13.91
2022-10-30T00:50:39.495Z,13.89
2022-10-30T00:53:17.741Z,13.88
2022-10-30T00:55:56.344Z,13.87
2022-10-30T00:58:36.304Z,13.85
2022-10-30T01:01:19.981Z,13.85
2022-10-30T01:03:56.557Z,13.84
2022-10-30T01:06:34.587Z,13.85
2022-10-30T01:09:09.060Z,13.82
2022-10-30T01:11:41.460Z,13.80
2022-10-30T01:14:17.381Z,13.81
2022-10-30T01:17:02.957Z,13.80
2022-10-30T01:20:03.533Z,13.75
2022-10-30T01:22:54.734Z,13.76
2022-10-30T01:25:44.595Z,13.77
2022-10-30T01:28:38.337Z,13.77
2022-10-30T01:31:50.432Z,13.73
2022-10-30T01:34:53.379Z,13.69
2022-10-30T01:37:34.040Z,13.64
2022-10-30T01:40:13.500Z,13.63
2022-10-30T01:42:52.729Z,13.64
2022-10-30T01:45:56.525Z,13.62
2022-10-30T01:48:52.673Z,13.62
2022-10-30T01:51:52.508Z,13.58
2022-10-30T01:54:58.632Z,13.53
2022-10-30T01:57:58.004Z,13.50
2022-10-30T02:00:32.335Z,13.48
2022-10-30T02:03:05.327Z,13.47
2022-10-30T02:05:48.646Z,13.45
2022-10-30T02:08:24.569Z,13.42
2022-10-30T02:10:58.255Z,13.40
2022-10-30T02:13:46.002Z,13.36
2022-10-30T02:16:19.293Z,13.32
2022-10-30T02:18:50.914Z,13.31
2022-10-30T02:21:22.549Z,13.29
2022-10-30T02:23:55.855Z,13.26
2022-10-30T02:26:27.495Z,13.25
2022-10-30T02:28:59.191Z,13.26
2022-10-30T02:31:30.883Z,13.21
2022-10-30T02:34:02.698Z,13.16
2022-10-30T02:36:38.005Z,13.13
2022-10-30T02:39:12.455Z,13.11
2022-10-30T02:41:51.181Z,13.09
2022-10-30T02:44:22.813Z,13.06
2022-10-30T02:46:54.413Z,13.03
2022-10-30T02:49:27.519Z,12.98
2022-10-30T02:51:59.360Z,12.90
2022-10-30T02:54:35.088Z,12.86
2022-10-30T02:57:10.197Z,12.85
2022-10-30T02:59:42.927Z,12.82
2022-10-30T03:02:17.388Z,12.80
2022-10-30T03:04:49.099Z,12.78
2022-10-30T03:07:20.798Z,12.74
2022-10-30T03:09:55.528Z,12.73
2022-10-30T03:12:27.125Z,12.72
2022-10-30T03:15:01.783Z,12.73
2022-10-30T03:17:33.436Z,12.69
2022-10-30T03:20:05.482Z,12.70
2022-10-30T03:22:38.504Z,12.71
2022-10-30T03:25:12.124Z,12.72
2022-10-30T03:27:52.850Z,12.68
2022-10-30T03:30:25.360Z,12.68
2022-10-30T03:32:59.106Z,12.66
2022-10-30T03:35:32.849Z,12.67
2022-10-30T03:38:04.537Z,12.68
2022-10-30T03:40:37.337Z,12.71
2022-10-30T03:43:09.540Z,12.74
2022-10-30T03:45:49.319Z,12.73
2022-10-30T03:48:24.721Z,12.77
2022-10-30T03:50:57.997Z,12.78
2022-10-30T03:53:30.191Z,12.80
2022-10-30T03:56:04.639Z,12.86
2022-10-30T03:59:00.884Z,12.89
2022-10-30T04:01:36.386Z,12.90
2022-10-30T04:04:08.310Z,12.82
2022-10-30T04:06:40.022Z,12.81
2022-10-30T04:09:19.050Z,12.84
2022-10-30T04:11:50.833Z,12.87
2022-10-30T04:14:25.251Z,12.89
2022-10-30T04:16:56.990Z,12.90
2022-10-30T04:19:28.595Z,12.93
2022-10-30T04:22:00.270Z,12.94
2022-10-30T04:24:32.088Z,12.96
2022-10-30T04:27:06.916Z,12.99
2022-10-30T04:29:38.392Z,12.95
2022-10-30T04:32:10.739Z,12.92
2022-10-30T04:34:42.760Z,12.86
2022-10-30T04:37:14.553Z,12.86
2022-10-30T04:39:48.676Z,12.87
2022-10-30T04:42:25.747Z,12.89
2022-10-30T04:44:58.991Z,12.89
2022-10-30T04:47:30.940Z,12.89
2022-10-30T04:50:02.868Z,12.91
2022-10-30T04:52:37.681Z,12.93
2022-10-30T04:55:10.808Z,12.92
2022-10-30T04:57:42.969Z,12.86
2022-10-30T05:00:14.819Z,12.81
2022-10-30T05:02:46.590Z,12.79
2022-10-30T05:05:18.270Z,12.79
2022-10-30T05:07:49.910Z,12.70
2022-10-30T05:10:22.944Z,12.57
2022-10-30T05:13:00.643Z,12.61
2022-10-30T05:15:38.325Z,12.47
2022-10-30T05:18:16.059Z,12.37
2022-10-30T05:20:50.980Z,12.39
2022-10-30T05:23:25.457Z,12.44
2022-10-30T05:25:57.140Z,12.49
2022-10-30T05:28:33.340Z,12.36
2022-10-30T05:31:05.210Z,12.39
2022-10-30T05:33:58.664Z,12.37
2022-10-30T05:36:34.208Z,12.39
2022-10-30T05:39:06.734Z,12.39
2022-10-30T05:41:45.501Z,12.43
2022-10-30T05:44:34.207Z,12.41
2022-10-30T05:47:12.901Z,12.41
2022-10-30T05:49:49.449Z,12.41
2022-10-30T05:52:27.284Z,12.42
2022-10-30T05:55:03.498Z,12.43
2022-10-30T05:57:46.692Z,12.40
2022-10-30T06:00:18.413Z,12.39
2022-10-30T06:02:50.013Z,12.30
2022-10-30T06:05:21.666Z,12.25
2022-10-30T06:07:57.233Z,12.25
2022-10-30T06:10:29.357Z,12.21
2022-10-30T06:13:23.096Z,12.16
2022-10-30T06:16:16.258Z,12.21
2022-10-30T06:19:08.045Z,12.18
2022-10-30T06:21:50.100Z,12.15
2022-10-30T06:24:47.077Z,12.24
2022-10-30T06:27:44.475Z,12.29
2022-10-30T06:30:20.155Z,12.30
2022-10-30T06:33:02.693Z,12.36
2022-10-30T06:35:34.903Z,12.36
2022-10-30T06:38:08.755Z,12.38
2022-10-30T06:40:41.145Z,12.34
2022-10-30T06:43:27.792Z,12.31
2022-10-30T06:46:03.406Z,12.30
2022-10-30T06:48:36.986Z,12.25
2022-10-30T06:51:08.775Z,12.28
2022-10-30T06:53:46.198Z,12.34
2022-10-30T06:56:50.611Z,12.38
2022-10-30T06:59:47.199Z,12.45
2022-10-30T07:03:02.076Z,12.51
2022-10-30T07:05:37.613Z,12.55
2022-10-30T07:08:09.300Z,12.61
2022-10-30T07:10:41.568Z,12.64
2022-10-30T07:13:32.132Z,12.67
2022-10-30T07:16:22.550Z,12.73
2022-10-30T07:18:59.280Z,12.78
2022-10-30T07:21:35.835Z,12.80
2022-10-30T07:24:11.546Z,12.80
2022-10-30T07:26:55.976Z,12.83
2022-10-30T07:29:53.741Z,12.71
2022-10-30T07:32:46.225Z,12.61
2022-10-30T07:35:38.857Z,12.56
2022-10-30T07:38:28.175Z,12.60
2022-10-30T07:41:07.645Z,12.76
2022-10-30T07:43:54.417Z,13.11
2022-10-30T07:46:47.814Z,13.31
2022-10-30T07:49:31.739Z,13.49
2022-10-30T07:52:14.490Z,13.67
2022-10-30T07:54:50.451Z,13.86
2022-10-30T07:57:43.178Z,14.19
2022-10-30T08:00:23.660Z,15.62
2022-10-30T08:03:05.260Z,16.75
2022-10-30T08:05:55.516Z,17.65
2022-10-30T08:08:43.108Z,18.45
2022-10-30T08:11:34.433Z,18.96
2022-10-30T08:14:07.704Z,19.12
2022-10-30T08:16:39.348Z,19.34
2022-10-30T08:19:12.368Z,19.59
2022-10-30T08:21:46.908Z,20.03
2022-10-30T08:24:25.344Z,20.64
2022-10-30T08:26:58.806Z,21.12
2022-10-30T08:29:32.491Z,21.50
2022-10-30T08:32:04.649Z,22.09
2022-10-30T08:35:01.904Z,22.87
2022-10-30T08:37:39.562Z,23.41
2022-10-30T08:40:11.386Z,23.84
2022-10-30T08:43:02.939Z,24.52
2022-10-30T08:45:37.174Z,25.02
2022-10-30T08:48:16.287Z,25.07
2022-10-30T08:50:51.238Z,25.28
2022-10-30T08:53:30.873Z,25.10
2022-10-30T08:56:02.932Z,25.16
2022-10-30T08:58:46.387Z,25.24
2022-10-30T09:01:19.692Z,25.33
2022-10-30T09:04:15.588Z,24.73
2022-10-30T09:06:56.067Z,24.24
2022-10-30T09:09:48.555Z,23.89
2022-10-30T09:12:24.375Z,23.90
2022-10-30T09:14:56.008Z,24.05
2022-10-30T09:17:27.811Z,24.13
2022-10-30T09:20:00.393Z,24.33
2022-10-30T09:22:41.670Z,24.33
2022-10-30T09:25:15.923Z,24.36
2022-10-30T09:27:53.789Z,24.16
2022-10-30T09:30:28.613Z,23.97
2022-10-30T09:33:02.675Z,23.30
2022-10-30T09:35:54.660Z,22.32
2022-10-30T09:38:26.537Z,21.56
2022-10-30T09:41:18.618Z,21.07
2022-10-30T09:44:07.261Z,20.51
2022-10-30T09:47:06.332Z,20.25
2022-10-30T09:50:15.833Z,20.16
2022-10-30T09:53:50.025Z,20.46
2022-10-30T09:56:39.097Z,20.38
2022-10-30T09:59:36.351Z,20.21
2022-10-30T10:02:27.742Z,20.15
2022-10-30T10:05:20.410Z,20.07
2022-10-30T10:08:17.467Z,20.08
2022-10-30T10:11:28.896Z,19.74
2022-10-30T10:14:14.916Z,19.60
2022-10-30T10:16:54.560Z,19.43
2022-10-30T10:19:34.641Z,19.01
2022-10-30T10:22:17.406Z,18.91
2022-10-30T10:24:49.817Z,19.00
2022-10-30T10:28:09.635Z,19.08
2022-10-30T10:30:50.192Z,19.23
2022-10-30T10:33:43.380Z,19.44
2022-10-30T10:36:55.366Z,19.66
2022-10-30T10:39:46.558Z,19.82
2022-10-30T10:42:47.913Z,19.96
2022-10-30T10:45:29.461Z,19.94
2022-10-30T10:48:25.375Z,19.84
2022-10-30T10:51:33.716Z,19.91
2022-10-30T10:54:15.049Z,20.01
2022-10-30T10:56:56.011Z,20.07
2022-10-30T10:59:38.512Z,20.06
2022-10-30T11:02:32.057Z,20.05
2022-10-30T11:05:31.247Z,20.05
2022-10-30T11:08:25.329Z,20.07
2022-10-30T11:11:07.562Z,20.07
2022-10-30T11:13:45.558Z,20.08
2022-10-30T11:16:38.515Z,20.08
2022-10-30T11:19:10.104Z,20.02
2022-10-30T11:21:54.535Z,19.87
2022-10-30T11:24:34.031Z,19.68
2022-10-30T11:27:28.619Z,19.51
2022-10-30T11:30:06.127Z,19.31
2022-10-30T11:32:37.772Z,19.21
2022-10-30T11:35:09.364Z,19.31
2022-10-30T11:37:43.265Z,19.28
2022-10-30T11:40:15.004Z,19.00
2022-10-30T11:42:54.784Z,18.91
2022-10-30T11:45:37.752Z,19.06
2022-10-30T11:48:18.380Z,19.23
2022-10-30T11:50:54.875Z,19.35
2022-10-30T11:53:52.180Z,19.42
2022-10-30T11:56:23.819Z,19.56
2022-10-30T11:58:59.740Z,19.63
2022-10-30T12:01:36.847Z,19.71
2022-10-30T12:04:28.298Z,19.73
2022-10-30T12:07:28.003Z,19.55
2022-10-30T12:10:01.704Z,19.46
2022-10-30T12:12:41.919Z,19.49
2022-10-30T12:15:13.452Z,19.53
2022-10-30T12:17:53.322Z,19.61
2022-10-30T12:20:26.175Z,19.57
2022-10-30T12:23:00.632Z,19.58
2022-10-30T12:25:32.998Z,19.52
2022-10-30T12:28:06.519Z,19.56
2022-10-30T12:30:52.547Z,19.59
2022-10-30T12:33:50.362Z,19.53
2022-10-30T12:36:37.636Z,19.21
2022-10-30T12:39:19.535Z,19.18
2022-10-30T12:42:11.487Z,19.14
2022-10-30T12:44:54.452Z,19.03
2022-10-30T12:47:52.299Z,19.06
2022-10-30T12:50:27.921Z,19.04
2022-10-30T12:53:07.257Z,19.05
2022-10-30T12:55:45.214Z,19.04
2022-10-30T12:58:33.795Z,19.03
2022-10-30T13:01:12.357Z,19.08
2022-10-30T13:03:51.394Z,19.02
2022-10-30T13:06:28.543Z,18.94
2022-10-30T13:09:49.104Z,19.04
2022-10-30T13:12:30.683Z,19.08
2022-10-30T13:15:21.788Z,19.09
2022-10-30T13:20:45.414Z,18.88
2022-10-30T13:23:28.677Z,18.63
2022-10-30T13:26:13.437Z,18.31
2022-10-30T13:29:30.789Z,18.02
2022-10-30T13:32:38.684Z,17.96
2022-10-30T13:35:20.662Z,17.83
2022-10-30T13:38:14.172Z,17.68
2022-10-30T13:41:08.298Z,17.57
2022-10-30T13:44:25.188Z,17.57
2022-10-30T13:46:57.092Z,17.53
2022-10-30T13:49:57.029Z,17.59
2022-10-30T13:52:36.550Z,17.59
2022-10-30T13:55:19.341Z,17.45
2022-10-30T13:58:19.823Z,17.33
2022-10-30T14:01:56.403Z,17.28
2022-10-30T14:04:50.429Z,17.37
2022-10-30T14:07:38.998Z,17.52
2022-10-30T14:10:55.929Z,17.62
2022-10-30T14:13:56.747Z,17.70
2022-10-30T14:16:40.419Z,17.59
2022-10-30T14:19:15.038Z,17.39
2022-10-30T14:21:57.758Z,17.10
2022-10-30T14:24:44.114Z,16.99
2022-10-30T14:27:26.962Z,17.10
2022-10-30T14:30:00.255Z,17.23
2022-10-30T14:32:42.290Z,17.27
2022-10-30T14:35:38.291Z,17.23
2022-10-30T14:38:09.870Z,17.14
2022-10-30T14:40:57.086Z,17.19
2022-10-30T14:43:57.533Z,17.28
2022-10-30T14:46:57.729Z,17.32
2022-10-30T14:49:42.767Z,17.35
2022-10-30T14:52:27.288Z,17.28
2022-10-30T14:55:14.194Z,17.12
2022-10-30T14:58:05.967Z,16.93
2022-10-30T15:00:40.809Z,16.94
2022-10-30T15:03:13.517Z,16.89
2022-10-30T15:06:03.207Z,16.84
2022-10-30T15:09:26.467Z,16.72
2022-10-30T15:12:20.862Z,16.71
2022-10-30T15:14:59.500Z,16.71
2022-10-30T15:17:36.950Z,16.69
2022-10-30T15:20:25.060Z,16.62
2022-10-30T15:23:18.299Z,16.41
2022-10-30T15:25:55.723Z,16.27
2022-10-30T15:28:34.560Z,16.19
2022-10-30T15:31:18.420Z,16.06
2022-10-30T15:33:59.671Z,16.04
2022-10-30T15:36:40.896Z,16.07
2022-10-30T15:39:17.484Z,16.09
2022-10-30T15:41:56.976Z,16.13
2022-10-30T15:44:35.207Z,16.15
2022-10-30T15:47:17.048Z,16.17
2022-10-30T15:49:55.161Z,16.16
2022-10-30T15:52:29.615Z,16.15
2022-10-30T15:55:17.051Z,16.12
2022-10-30T15:58:08.906Z,16.08
2022-10-30T16:00:40.578Z,16.03
2022-10-30T16:03:14.968Z,16.01
2022-10-30T16:05:46.671Z,15.95
2022-10-30T16:08:23.725Z,15.91
2022-10-30T16:10:56.682Z,15.85
2022-10-30T16:13:30.938Z,15.80
2022-10-30T16:16:03.541Z,15.76
2022-10-30T16:18:37.075Z,15.72
2022-10-30T16:21:13.957Z,15.64
2022-10-30T16:23:52.162Z,15.55
2022-10-30T16:26:38.086Z,15.48
2022-10-30T16:29:21.208Z,15.41
2022-10-30T16:31:53.687Z,15.34
2022-10-30T16:34:34.803Z,15.29
2022-10-30T16:37:11.077Z,15.25
2022-10-30T16:39:45.736Z,15.17
2022-10-30T16:42:23.446Z,15.10
2022-10-30T16:45:24.423Z,15.04
2022-10-30T16:48:08.920Z,14.99
2022-10-30T16:50:40.966Z,14.92
2022-10-30T16:53:25.952Z,14.86
2022-10-30T16:56:01.652Z,14.83
2022-10-30T16:58:33.382Z,14.80
2022-10-30T17:01:06.708Z,14.76
2022-10-30T17:03:46.563Z,14.70
2022-10-30T17:06:27.260Z,14.65
2022-10-30T17:09:00.937Z,14.59
2022-10-30T17:11:44.531Z,14.56
2022-10-30T17:14:22.001Z,14.51
2022-10-30T17:16:56.441Z,14.46
2022-10-30T17:19:33.922Z,14.41
2022-10-30T17:22:14.352Z,14.36
2022-10-30T17:24:47.679Z,14.30
2022-10-30T17:27:49.345Z,14.25
2022-10-30T17:30:39.316Z,14.20
2022-10-30T17:33:37.874Z,14.16
2022-10-30T17:36:09.578Z,14.12
2022-10-30T17:38:41.166Z,14.07
2022-10-30T17:41:16.922Z,14.03
2022-10-30T17:43:51.628Z,14.00
2022-10-30T17:46:25.536Z,13.94
2022-10-30T17:48:59.126Z,13.89
2022-10-30T17:51:32.388Z,13.85
2022-10-30T17:54:10.006Z,13.80
2022-10-30T17:56:42.126Z,13.77
2022-10-30T17:59:16.158Z,13.72
2022-10-30T18:01:50.766Z,13.71
2022-10-30T18:04:22.353Z,13.67
2022-10-30T18:06:53.991Z,13.65
2022-10-30T18:09:25.589Z,13.65
2022-10-30T18:11:57.181Z,13.62
2022-10-30T18:14:28.820Z,13.58
2022-10-30T18:17:00.529Z,13.57
2022-10-30T18:19:35.235Z,13.55
2022-10-30T18:22:06.875Z,13.51
2022-10-30T18:24:38.931Z,13.50
2022-10-30T18:27:10.561Z,13.48
2022-10-30T18:29:42.148Z,13.45
2022-10-30T18:32:14.779Z,13.43
2022-10-30T18:34:46.406Z,13.42
2022-10-30T18:37:18.058Z,13.40
2022-10-30T18:39:49.669Z,13.40
2022-10-30T18:42:24.145Z,13.39
2022-10-30T18:44:58.024Z,13.37
2022-10-30T18:47:29.636Z,13.33
2022-10-30T18:50:01.276Z,13.26
2022-10-30T18:52:33.147Z,13.25
2022-10-30T18:55:39.376Z,13.25
2022-10-30T18:58:11.940Z,13.22
2022-10-30T19:01:10.439Z,13.17
2022-10-30T19:03:42.037Z,13.13
2022-10-30T19:06:22.334Z,13.14
2022-10-30T19:08:55.243Z,13.13
2022-10-30T19:11:30.257Z,13.10
2022-10-30T19:14:05.981Z,13.06
2022-10-30T19:16:37.603Z,13.04
2022-10-30T19:19:09.497Z,13.02
2022-10-30T19:21:41.143Z,12.98
2022-10-30T19:24:15.149Z,12.96
2022-10-30T19:26:48.005Z,12.95
2022-10-30T19:29:19.604Z,12.92
2022-10-30T19:31:53.935Z,12.92
2022-10-30T19:34:25.574Z,12.90
2022-10-30T19:36:57.223Z,12.86
2022-10-30T19:39:28.881Z,12.83
2022-10-30T19:42:00.511Z,12.80
2022-10-30T19:44:32.107Z,12.80
2022-10-30T19:47:03.726Z,12.77
2022-10-30T19:49:35.353Z,12.76
2022-10-30T19:52:06.988Z,12.73
2022-10-30T19:54:38.582Z,12.68
2022-10-30T19:57:13.842Z,12.66
2022-10-30T19:59:45.472Z,12.63
2022-10-30T20:02:17.189Z,12.62
2022-10-30T20:04:48.931Z,12.59
2022-10-30T20:07:20.606Z,12.57
2022-10-30T20:09:52.221Z,12.53
2022-10-30T20:12:23.860Z,12.51
2022-10-30T20:14:58.427Z,12.47
2022-10-30T20:17:29.935Z,12.44
2022-10-30T20:20:01.498Z,12.39
2022-10-30T20:22:33.132Z,12.38
2022-10-30T20:25:05.099Z,12.36
2022-10-30T20:27:43.195Z,12.32
2022-10-30T20:30:32.733Z,12.29
2022-10-30T20:33:12.142Z,12.27
2022-10-30T20:35:43.757Z,12.26
2022-10-30T20:38:22.200Z,12.25
2022-10-30T20:40:54.344Z,12.26
2022-10-30T20:43:31.792Z,12.25
2022-10-30T20:46:06.027Z,12.23
2022-10-30T20:48:38.077Z,12.20
2022-10-30T20:51:11.254Z,12.20
2022-10-30T20:53:42.888Z,12.16
2022-10-30T20:56:16.762Z,12.14
2022-10-30T20:58:48.392Z,12.13
2022-10-30T21:01:20.120Z,12.09
2022-10-30T21:03:53.774Z,12.07
2022-10-30T21:06:30.197Z,12.05
2022-10-30T21:09:01.840Z,12.04
2022-10-30T21:11:33.749Z,12.03
2022-10-30T21:14:05.400Z,12.00
2022-10-30T21:16:39.928Z,11.96
2022-10-30T21:19:13.758Z,11.91
2022-10-30T21:21:45.412Z,11.90
2022-10-30T21:24:17.132Z,11.87
2022-10-30T21:26:48.706Z,11.84
2022-10-30T21:29:20.315Z,11.84
2022-10-30T21:31:51.903Z,11.83
2022-10-30T21:34:23.579Z,11.82
2022-10-30T21:36:55.194Z,11.80
2022-10-30T21:39:26.820Z,11.78
2022-10-30T21:41:58.496Z,11.75
2022-10-30T21:44:30.170Z,11.72
2022-10-30T21:47:04.661Z,11.68
2022-10-30T21:49:39.711Z,11.66
2022-10-30T21:52:14.364Z,11.66
2022-10-30T21:54:45.801Z,11.62
2022-10-30T21:57:17.364Z,11.61
2022-10-30T21:59:48.967Z,11.60
2022-10-30T22:02:20.612Z,11.58
2022-10-30T22:04:52.263Z,11.57
2022-10-30T22:07:24.163Z,11.56
2022-10-30T22:09:58.796Z,11.55
2022-10-30T22:12:30.325Z,11.54
2022-10-30T22:15:01.969Z,11.52
2022-10-30T22:17:34.960Z,11.47
2022-10-30T22:20:08.828Z,11.44
2022-10-30T22:22:48.829Z,11.41
2022-10-30T22:25:23.530Z,11.39
2022-10-30T22:27:54.911Z,11.36
2022-10-30T22:30:26.605Z,11.34
2022-10-30T22:32:59.450Z,11.33
2022-10-30T22:35:31.253Z,11.33
2022-10-30T22:38:06.966Z,11.28
2022-10-30T22:40:38.774Z,11.26
2022-10-30T22:43:10.435Z,11.21
2022-10-30T22:45:47.233Z,11.17
2022-10-30T22:48:21.904Z,11.15
2022-10-30T22:51:04.440Z,11.12
2022-10-30T22:53:37.619Z,11.13
2022-10-30T22:56:23.787Z,11.13
2022-10-30T22:58:56.441Z,11.10
2022-10-30T23:01:32.489Z,11.09
2022-10-30T23:04:05.422Z,11.09
2022-10-30T23:06:37.614Z,11.07
2022-10-30T23:09:16.068Z,11.04
2022-10-30T23:11:50.994Z,11.00
2022-10-30T23:14:26.945Z,10.96
2022-10-30T23:16:59.931Z,10.94
2022-10-30T23:19:31.568Z,10.90
2022-10-30T23:22:03.219Z,10.85
2022-10-30T23:24:34.787Z,10.80
2022-10-30T23:27:06.386Z,10.74
2022-10-30T23:29:37.948Z,10.65
2022-10-30T23:32:12.703Z,10.63
2022-10-30T23:34:44.109Z,10.59
2022-10-30T23:37:15.709Z,10.52
2022-10-30T23:39:47.597Z,10.53
2022-10-30T23:42:19.186Z,10.56
2022-10-30T23:44:50.745Z,10.58
2022-10-30T23:47:24.795Z,10.58
2022-10-30T23:49:56.428Z,10.60
2022-10-30T23:52:31.009Z,10.62
2022-10-30T23:55:02.627Z,10.64
2022-10-30T23:57:34.219Z,10.68
